Time;durP1;ratioP1;P1;durP2;ratioP2;P2;SDS_P1;SDS_P2;PMS_P1;PMS_P2;Temp;Humidity;BMP_temperature;BMP_pressure;BME280_temperature;BME280_humidity;BME280_pressure;Samples;Min_cycle;Max_cycle;Signal;HPM_P1;HPM_P2
2022/08/10 00:00:25;;;;;;;5.80;3.13;;;20.40;66.20;;;;;;5013270;28;20407;-64
2022/08/10 00:02:54;;;;;;;5.33;3.63;;;20.30;65.40;;;;;;5013198;28;20645;-65
2022/08/10 00:05:21;;;;;;;3.53;3.23;;;20.20;66.20;;;;;;5013247;28;20415;-64
2022/08/10 00:07:47;;;;;;;3.97;3.57;;;20.00;66.40;;;;;;5013236;28;20403;-65
2022/08/10 00:10:15;;;;;;;3.73;3.40;;;20.10;68.40;;;;;;5013118;28;20624;-65
2022/08/10 00:12:42;;;;;;;4.20;3.33;;;20.10;68.70;;;;;;5013066;28;20200;-65
2022/08/10 00:15:09;;;;;;;5.30;3.53;;;20.00;70.40;;;;;;5013117;28;20434;-65
2022/08/10 00:17:35;;;;;;;3.70;3.40;;;19.80;71.10;;;;;;5013187;28;20411;-66
2022/08/10 00:20:01;;;;;;;5.70;3.83;;;20.00;72.60;;;;;;5012876;28;20770;-66
2022/08/10 00:22:27;;;;;;;3.27;3.00;;;20.10;73.20;;;;;;5013024;28;20257;-66
2022/08/10 00:24:56;;;;;;;5.03;3.17;;;20.00;75.00;;;;;;5012880;28;20179;-66
2022/08/10 00:27:26;;;;;;;3.40;3.10;;;20.10;75.20;;;;;;5012724;28;20179;-66
2022/08/10 00:29:52;;;;;;;4.17;3.73;;;19.90;74.70;;;;;;5012445;28;20451;-66
2022/08/10 00:32:17;;;;;;;7.60;3.33;;;19.90;76.10;;;;;;5012771;28;20423;-66
2022/08/10 00:34:44;;;;;;;4.07;3.23;;;19.60;76.20;;;;;;5012666;28;20399;-66
2022/08/10 00:37:11;;;;;;;5.43;3.00;;;19.70;78.90;;;;;;5012575;28;20637;-66
2022/08/10 00:39:37;;;;;;;5.13;3.37;;;19.70;79.10;;;;;;5012547;28;20482;-66
2022/08/10 00:42:10;;;;;;;3.50;3.20;;;19.70;80.70;;;;;;5012550;28;21039;-66
2022/08/10 00:44:45;;;;;;;4.43;3.77;;;19.60;81.20;;;;;;5012607;28;20274;-66
2022/08/10 00:47:12;;;;;;;3.60;3.30;;;19.60;82.60;;;;;;5012123;28;20435;-67
2022/08/10 00:49:39;;;;;;;4.73;4.13;;;19.70;83.80;;;;;;5012224;28;20443;-66
2022/08/10 00:52:05;;;;;;;4.20;3.80;;;19.70;84.80;;;;;;5012253;28;20416;-66
2022/08/10 00:54:33;;;;;;;3.80;3.40;;;19.70;85.60;;;;;;5012368;28;20431;-66
2022/08/10 00:56:59;;;;;;;3.83;3.10;;;19.60;86.30;;;;;;5012047;28;20442;-66
2022/08/10 00:59:25;;;;;;;6.30;3.80;;;19.70;86.70;;;;;;5011167;28;20410;-66
2022/08/10 01:01:51;;;;;;;3.70;3.40;;;19.50;87.00;;;;;;5012173;28;20188;-66
2022/08/10 01:04:16;;;;;;;5.50;3.70;;;19.50;87.80;;;;;;5012297;28;20195;-66
2022/08/10 01:07:05;;;;;;;4.00;3.60;;;19.30;88.70;;;;;;5012180;28;20246;-66
2022/08/10 01:09:38;;;;;;;5.27;3.97;;;19.40;89.40;;;;;;5011430;28;20653;-66
2022/08/10 01:12:08;;;;;;;7.90;3.50;;;19.40;90.40;;;;;;5011991;28;20446;-66
2022/08/10 01:14:47;;;;;;;4.33;3.77;;;19.30;90.40;;;;;;5012209;28;20816;-66
2022/08/10 01:17:42;;;;;;;4.97;4.10;;;19.30;91.20;;;;;;5011801;28;20411;-66
2022/08/10 01:20:14;;;;;;;5.07;3.33;;;19.40;91.60;;;;;;5011836;28;20408;-66
2022/08/10 01:22:46;;;;;;;4.23;3.93;;;19.30;91.90;;;;;;5011872;28;20443;-66
2022/08/10 01:25:39;;;;;;;4.20;3.83;;;19.20;92.20;;;;;;5011872;28;20490;-66
2022/08/10 01:28:24;;;;;;;4.10;3.37;;;19.30;92.90;;;;;;5011476;28;20431;-66
2022/08/10 01:30:52;;;;;;;4.27;3.80;;;19.30;92.70;;;;;;5011717;28;20458;-65
2022/08/10 01:33:23;;;;;;;4.63;3.30;;;19.20;92.80;;;;;;5011524;28;20522;-66
2022/08/10 01:35:53;;;;;;;5.30;3.77;;;19.20;93.70;;;;;;5011678;28;20426;-66
2022/08/10 01:38:28;;;;;;;4.30;3.97;;;19.20;93.40;;;;;;5011356;28;20529;-66
2022/08/10 01:41:01;;;;;;;4.30;3.90;;;19.00;94.20;;;;;;5011655;28;20395;-66
2022/08/10 01:43:30;;;;;;;5.53;4.60;;;19.00;94.00;;;;;;5011487;28;20436;-66
2022/08/10 01:45:58;;;;;;;4.27;3.87;;;18.90;94.50;;;;;;5011460;28;20403;-65
2022/08/10 01:48:31;;;;;;;6.17;3.83;;;18.80;94.80;;;;;;5011316;28;20403;-65
2022/08/10 01:51:13;;;;;;;4.43;4.03;;;18.90;96.10;;;;;;5011269;28;20501;-66
2022/08/10 01:53:50;;;;;;;4.50;3.90;;;18.80;96.10;;;;;;5011496;28;20490;-66
2022/08/10 01:56:18;;;;;;;4.20;3.80;;;18.80;97.00;;;;;;5011607;28;20454;-66
2022/08/10 01:58:48;;;;;;;3.97;3.57;;;18.90;97.10;;;;;;5011046;28;20414;-66
2022/08/10 02:01:18;;;;;;;4.67;3.90;;;18.70;97.40;;;;;;5011451;28;20465;-66
2022/08/10 02:03:49;;;;;;;4.20;3.90;;;18.70;97.80;;;;;;5012199;28;20482;-66
2022/08/10 02:06:17;;;;;;;4.80;4.40;;;18.70;98.10;;;;;;4994371;28;20434;-66
2022/08/10 02:08:45;;;;;;;3.73;3.43;;;18.60;98.40;;;;;;5011076;28;20470;-65
2022/08/10 02:11:13;;;;;;;4.40;4.00;;;18.60;98.70;;;;;;5013614;28;20455;-66
2022/08/10 02:13:41;;;;;;;4.13;3.63;;;18.70;99.50;;;;;;5014984;28;20486;-66
2022/08/10 02:16:08;;;;;;;4.50;4.10;;;18.70;99.90;;;;;;5015135;28;20917;-66
2022/08/10 02:18:36;;;;;;;6.10;3.97;;;18.60;99.90;;;;;;5014966;28;20399;-67
2022/08/10 02:21:07;;;;;;;5.00;4.50;;;18.60;99.90;;;;;;5015456;28;20761;-67
2022/08/10 02:23:37;;;;;;;4.90;4.40;;;18.70;99.90;;;;;;5015049;28;20486;-67
2022/08/10 02:26:04;;;;;;;11.70;3.93;;;18.70;99.90;;;;;;5015182;28;20415;-65
2022/08/10 02:28:32;;;;;;;5.00;4.10;;;18.60;99.90;;;;;;5014976;28;20502;-67
2022/08/10 02:31:03;;;;;;;7.10;4.00;;;18.60;99.90;;;;;;5015873;28;20461;-64
2022/08/10 02:33:30;;;;;;;7.17;4.40;;;18.60;99.90;;;;;;5015826;28;21055;-64
2022/08/10 02:35:59;;;;;;;4.20;3.83;;;18.50;99.90;;;;;;5015844;28;20399;-64
2022/08/10 02:38:41;;;;;;;6.60;3.97;;;18.60;99.90;;;;;;5014602;28;20461;-64
2022/08/10 02:41:25;;;;;;;4.63;4.23;;;18.30;99.90;;;;;;5014961;28;20411;-65
2022/08/10 02:43:56;;;;;;;5.03;4.63;;;18.30;99.90;;;;;;5014641;28;20465;-65
2022/08/10 02:46:40;;;;;;;5.20;4.77;;;18.40;99.90;;;;;;5014635;28;20411;-65
2022/08/10 02:49:13;;;;;;;4.63;4.23;;;18.40;99.90;;;;;;5014292;28;20453;-65
2022/08/10 02:51:46;;;;;;;12.73;4.87;;;18.30;99.90;;;;;;5014493;28;20513;-65
2022/08/10 02:54:23;;;;;;;5.40;4.80;;;18.20;99.90;;;;;;5014494;28;20408;-65
2022/08/10 02:57:04;;;;;;;5.63;4.50;;;18.20;99.90;;;;;;5015267;28;20395;-65
2022/08/10 02:59:41;;;;;;;5.00;4.50;;;18.20;99.90;;;;;;5014246;28;20449;-65
2022/08/10 03:02:12;;;;;;;4.43;4.13;;;18.30;99.90;;;;;;5014261;28;20449;-65
2022/08/10 03:04:47;;;;;;;5.97;4.40;;;18.30;99.90;;;;;;5014541;28;20402;-65
2022/08/10 03:07:19;;;;;;;6.47;4.43;;;18.30;99.90;;;;;;5014463;28;21061;-65
2022/08/10 03:09:46;;;;;;;4.80;4.40;;;18.20;99.90;;;;;;5014206;28;20446;-65
2022/08/10 03:12:13;;;;;;;4.87;4.30;;;18.20;99.90;;;;;;5014494;28;20497;-66
2022/08/10 03:14:40;;;;;;;4.67;3.53;;;18.20;99.90;;;;;;5014332;28;20403;-65
2022/08/10 03:17:08;;;;;;;5.00;4.50;;;18.20;99.90;;;;;;5013788;28;20963;-65
2022/08/10 03:19:35;;;;;;;5.73;4.57;;;18.20;99.90;;;;;;5013957;28;20414;-65
2022/08/10 03:22:03;;;;;;;11.23;4.80;;;18.10;99.90;;;;;;5012773;28;20477;-64
2022/08/10 03:24:31;;;;;;;9.03;4.63;;;18.30;99.90;;;;;;5014239;28;20510;-67
2022/08/10 03:26:57;;;;;;;4.90;4.50;;;18.20;99.90;;;;;;5013738;28;20399;-66
2022/08/10 03:29:25;;;;;;;4.30;4.00;;;18.20;99.90;;;;;;5013934;28;20468;-66
2022/08/10 03:31:52;;;;;;;4.97;4.47;;;18.30;99.90;;;;;;5013812;28;20513;-66
2022/08/10 03:34:19;;;;;;;18.30;5.17;;;18.10;99.90;;;;;;5013855;28;20406;-66
2022/08/10 03:36:45;;;;;;;5.03;4.53;;;18.20;99.90;;;;;;4996494;28;20406;-66
2022/08/10 03:39:12;;;;;;;5.53;4.80;;;18.10;99.90;;;;;;5013512;28;20396;-66
2022/08/10 03:41:49;;;;;;;6.33;4.23;;;18.10;99.90;;;;;;5013559;28;20188;-66
2022/08/10 03:44:20;;;;;;;5.40;4.60;;;18.10;99.90;;;;;;5013855;28;20883;-66
2022/08/10 03:46:47;;;;;;;5.00;4.60;;;18.20;99.90;;;;;;5013669;28;20402;-66
2022/08/10 03:49:16;;;;;;;5.20;4.80;;;18.10;99.90;;;;;;5013224;28;20407;-66
2022/08/10 03:51:44;;;;;;;8.50;4.93;;;18.10;99.90;;;;;;5013560;28;20819;-66
2022/08/10 03:54:10;;;;;;;7.23;5.23;;;18.30;99.90;;;;;;5013935;28;20826;-66
2022/08/10 03:56:38;;;;;;;9.37;5.10;;;18.30;99.90;;;;;;5013562;28;20491;-67
2022/08/10 03:59:08;;;;;;;5.73;4.60;;;18.20;99.90;;;;;;5013027;28;20170;-67
2022/08/10 04:01:34;;;;;;;6.17;5.53;;;18.00;99.90;;;;;;5013507;28;20407;-66
2022/08/10 04:04:00;;;;;;;4.57;4.17;;;17.90;99.90;;;;;;5013298;28;20433;-67
2022/08/10 04:06:26;;;;;;;4.97;4.50;;;18.00;99.90;;;;;;5013297;28;20415;-66
2022/08/10 04:08:52;;;;;;;4.90;4.50;;;17.80;99.90;;;;;;5012720;28;20177;-66
2022/08/10 04:11:18;;;;;;;5.13;4.33;;;17.80;99.90;;;;;;5012973;28;21030;-67
2022/08/10 04:13:43;;;;;;;10.70;5.23;;;17.80;99.90;;;;;;5013096;28;20168;-67
2022/08/10 04:16:09;;;;;;;7.50;4.97;;;17.90;99.90;;;;;;5013124;28;20165;-65
2022/08/10 04:18:35;;;;;;;4.90;4.50;;;17.90;99.90;;;;;;5012774;28;20195;-65
2022/08/10 04:21:33;;;;;;;11.07;6.43;;;18.00;99.90;;;;;;5012958;28;20172;-66
2022/08/10 04:24:02;;;;;;;7.27;4.73;;;18.00;99.90;;;;;;5012990;28;20172;-66
2022/08/10 04:26:28;;;;;;;11.37;7.33;;;17.90;99.90;;;;;;5012869;28;20399;-67
2022/08/10 04:28:54;;;;;;;9.37;4.87;;;18.00;99.90;;;;;;5012670;28;20770;-66
2022/08/10 04:31:22;;;;;;;6.97;4.60;;;18.00;99.90;;;;;;4995085;28;20451;-66
2022/08/10 04:33:50;;;;;;;9.37;4.90;;;18.10;99.90;;;;;;5012623;28;20415;-67
2022/08/10 04:36:17;;;;;;;4.67;4.27;;;18.10;99.90;;;;;;5012923;28;20407;-66
2022/08/10 04:38:45;;;;;;;4.90;4.50;;;18.30;99.90;;;;;;5012370;28;20815;-66
2022/08/10 04:41:11;;;;;;;5.93;4.77;;;18.00;99.90;;;;;;5012736;28;20402;-65
2022/08/10 04:43:38;;;;;;;12.57;5.07;;;18.00;99.90;;;;;;5012499;28;20438;-65
2022/08/10 04:46:03;;;;;;;14.13;5.50;;;18.00;99.90;;;;;;5012307;28;20881;-65
2022/08/10 04:48:29;;;;;;;6.17;5.27;;;18.00;99.90;;;;;;5012220;28;20411;-65
2022/08/10 04:50:55;;;;;;;5.20;4.70;;;17.90;99.90;;;;;;5012655;28;20624;-64
2022/08/10 04:53:21;;;;;;;5.47;5.03;;;17.90;99.90;;;;;;5012308;28;20184;-64
2022/08/10 04:55:47;;;;;;;7.00;4.60;;;17.90;99.90;;;;;;5012383;28;20411;-65
2022/08/10 04:58:13;;;;;;;5.63;5.03;;;17.80;99.90;;;;;;5012059;28;20540;-65
2022/08/10 05:00:39;;;;;;;5.43;4.63;;;17.90;99.90;;;;;;5012204;28;20176;-65
2022/08/10 05:03:05;;;;;;;5.60;5.10;;;18.50;99.90;;;;;;5012192;28;20196;-65
2022/08/10 05:05:30;;;;;;;5.90;5.30;;;19.20;99.90;;;;;;5012237;28;20446;-66
2022/08/10 05:07:56;;;;;;;5.70;4.60;;;19.60;99.90;;;;;;5011980;28;20172;-66
2022/08/10 05:10:22;;;;;;;16.80;5.47;;;19.80;99.90;;;;;;5011942;28;20204;-66
2022/08/10 05:12:48;;;;;;;5.40;4.80;;;19.70;99.90;;;;;;5012036;28;20282;-65
2022/08/10 05:15:14;;;;;;;5.70;4.13;;;19.70;99.90;;;;;;5011979;28;20542;-66
2022/08/10 05:17:41;;;;;;;6.40;4.37;;;20.00;99.90;;;;;;5011961;28;20160;-66
2022/08/10 05:20:09;;;;;;;6.17;4.80;;;19.80;99.90;;;;;;5011910;28;20422;-66
2022/08/10 05:22:40;;;;;;;6.20;4.67;;;19.70;99.90;;;;;;5011805;28;20427;-66
2022/08/10 05:25:13;;;;;;;5.43;4.93;;;20.00;99.90;;;;;;5011916;28;20903;-66
2022/08/10 05:27:40;;;;;;;7.60;4.93;;;19.80;99.90;;;;;;5011593;28;20546;-66
2022/08/10 05:30:08;;;;;;;17.47;5.30;;;20.20;99.90;;;;;;5011694;28;20999;-66
2022/08/10 05:32:35;;;;;;;8.10;6.33;;;20.50;99.90;;;;;;5011815;28;20427;-65
2022/08/10 05:35:01;;;;;;;4.87;4.47;;;20.10;99.90;;;;;;5011899;28;20527;-65
2022/08/10 05:37:30;;;;;;;10.47;5.50;;;19.90;99.90;;;;;;5011377;28;20415;-65
2022/08/10 05:39:57;;;;;;;14.47;5.30;;;20.00;99.90;;;;;;5011465;28;20418;-66
2022/08/10 05:42:24;;;;;;;4.80;4.40;;;20.10;99.90;;;;;;5011429;28;20439;-65
2022/08/10 05:44:50;;;;;;;6.10;4.80;;;20.40;99.90;;;;;;5010938;28;20843;-66
2022/08/10 05:47:16;;;;;;;4.70;4.30;;;20.40;99.90;;;;;;5011510;28;20518;-66
2022/08/10 05:49:42;;;;;;;5.33;4.73;;;20.40;99.90;;;;;;5011450;28;20953;-66
2022/08/10 05:52:08;;;;;;;6.67;4.73;;;20.30;99.90;;;;;;5011590;28;20435;-66
2022/08/10 05:54:34;;;;;;;7.20;4.63;;;20.20;99.90;;;;;;5011479;28;20188;-66
2022/08/10 05:57:00;;;;;;;7.17;4.60;;;20.40;99.90;;;;;;5011572;28;20165;-66
2022/08/10 05:59:33;;;;;;;7.50;4.40;;;20.00;99.90;;;;;;5011438;28;20164;-66
2022/08/10 06:02:08;;;;;;;5.67;5.00;;;19.80;99.90;;;;;;5011615;28;20896;-66
2022/08/10 06:04:40;;;;;;;4.27;3.87;;;19.80;99.90;;;;;;5011406;28;20434;-65
2022/08/10 06:07:07;;;;;;;10.47;4.47;;;19.80;99.90;;;;;;5011198;28;20408;-66
2022/08/10 06:09:35;;;;;;;5.73;4.40;;;20.30;99.90;;;;;;5011297;28;20438;-66
2022/08/10 06:12:02;;;;;;;5.00;4.60;;;20.50;99.90;;;;;;5011253;28;20473;-66
2022/08/10 06:17:17;;;;;;;4.77;4.47;;;20.90;99.90;;;;;;5011468;28;20406;-65
2022/08/10 06:19:43;;;;;;;6.93;4.47;;;21.00;99.90;;;;;;5011098;28;20403;-66
2022/08/10 06:22:09;;;;;;;4.90;4.40;;;20.80;99.90;;;;;;5011095;28;20785;-66
2022/08/10 06:24:39;;;;;;;8.20;4.43;;;20.90;99.90;;;;;;5011068;28;20900;-65
2022/08/10 06:27:06;;;;;;;5.00;4.20;;;20.60;99.90;;;;;;5011088;28;20486;-65
2022/08/10 06:29:34;;;;;;;5.30;4.67;;;20.30;99.90;;;;;;5011021;28;20399;-65
2022/08/10 06:32:02;;;;;;;5.30;4.47;;;20.50;99.90;;;;;;5011375;28;20427;-65
2022/08/10 06:34:34;;;;;;;4.97;4.40;;;20.30;99.90;;;;;;5011167;28;20422;-65
2022/08/10 06:37:05;;;;;;;5.73;4.50;;;20.20;99.90;;;;;;5011127;28;20780;-65
2022/08/10 06:39:31;;;;;;;5.40;4.90;;;20.80;99.90;;;;;;5011321;28;20404;-65
2022/08/10 06:42:04;;;;;;;5.70;4.13;;;21.70;99.90;;;;;;5011122;28;20946;-65
2022/08/10 06:44:36;;;;;;;7.77;4.03;;;21.60;99.90;;;;;;5011166;28;20442;-65
2022/08/10 06:47:04;;;;;;;5.37;4.07;;;21.60;99.90;;;;;;5011098;28;20939;-65
2022/08/10 06:49:31;;;;;;;6.50;4.03;;;21.10;99.90;;;;;;5010976;28;20411;-65
2022/08/10 06:52:04;;;;;;;4.67;4.27;;;20.90;99.90;;;;;;5011009;28;20493;-65
2022/08/10 06:54:31;;;;;;;10.47;4.17;;;21.30;99.90;;;;;;5011098;28;20912;-65
2022/08/10 06:56:58;;;;;;;6.20;4.40;;;21.40;99.90;;;;;;5012777;28;20475;-65
2022/08/10 06:59:45;;;;;;;5.50;4.30;;;21.20;99.90;;;;;;5014343;28;20430;-65
2022/08/10 07:02:21;;;;;;;5.20;4.03;;;21.00;99.90;;;;;;5014590;28;20426;-65
2022/08/10 07:04:58;;;;;;;8.97;4.30;;;21.10;99.90;;;;;;5014697;28;20419;-65
2022/08/10 07:07:26;;;;;;;5.40;4.27;;;21.20;99.90;;;;;;5014219;28;21114;-65
2022/08/10 07:09:53;;;;;;;4.80;4.37;;;21.20;99.90;;;;;;5014342;28;20414;-66
2022/08/10 07:12:20;;;;;;;5.50;3.50;;;21.40;99.90;;;;;;5014826;28;20471;-66
2022/08/10 07:14:47;;;;;;;5.20;4.63;;;21.40;99.50;;;;;;5015147;28;20473;-66
2022/08/10 07:17:17;;;;;;;5.60;3.90;;;21.60;99.90;;;;;;5014356;28;20419;-66
2022/08/10 07:19:50;;;;;;;4.43;4.03;;;22.20;99.70;;;;;;5014097;28;20415;-66
2022/08/10 07:22:18;;;;;;;4.13;3.73;;;22.10;98.60;;;;;;5013859;28;20428;-66
2022/08/10 07:24:45;;;;;;;4.20;3.80;;;22.00;97.80;;;;;;5014284;28;20403;-66
2022/08/10 07:27:12;;;;;;;6.93;3.80;;;22.20;97.30;;;;;;5014011;28;21080;-66
2022/08/10 07:29:41;;;;;;;5.80;3.77;;;22.30;97.50;;;;;;5013956;28;20578;-66
2022/08/10 07:32:11;;;;;;;6.00;3.93;;;22.40;97.90;;;;;;5014072;28;20459;-66
2022/08/10 07:34:38;;;;;;;6.10;3.83;;;22.40;96.70;;;;;;5013884;28;20847;-66
2022/08/10 07:37:07;;;;;;;3.63;3.33;;;22.10;96.80;;;;;;5013595;28;20473;-65
2022/08/10 07:39:36;;;;;;;12.40;4.40;;;22.10;95.70;;;;;;5013650;28;20546;-66
2022/08/10 07:42:03;;;;;;;4.80;3.87;;;22.30;96.50;;;;;;5013632;28;20427;-66
2022/08/10 07:44:32;;;;;;;3.87;3.37;;;22.80;96.20;;;;;;5013604;28;20468;-66
2022/08/10 07:47:02;;;;;;;5.20;3.33;;;23.00;95.60;;;;;;5013629;28;20408;-64
2022/08/10 07:49:37;;;;;;;5.33;3.03;;;22.80;94.00;;;;;;5013347;28;20419;-65
2022/08/10 07:52:06;;;;;;;6.40;3.47;;;22.60;93.10;;;;;;5013401;28;20430;-65
2022/08/10 07:54:37;;;;;;;7.80;4.27;;;22.80;93.30;;;;;;5013580;28;20403;-64
2022/08/10 07:57:09;;;;;;;7.80;3.60;;;23.00;94.00;;;;;;5013230;28;20387;-65
2022/08/10 07:59:38;;;;;;;7.33;3.30;;;23.40;93.30;;;;;;5013223;28;20741;-65
2022/08/10 08:02:12;;;;;;;4.90;3.57;;;23.30;92.20;;;;;;5013308;28;21001;-66
2022/08/10 08:04:39;;;;;;;3.90;3.60;;;22.70;90.80;;;;;;5013297;28;20907;-65
2022/08/10 08:07:07;;;;;;;4.77;3.63;;;22.80;90.60;;;;;;5013084;28;20415;-65
2022/08/10 08:09:37;;;;;;;4.20;3.40;;;23.00;91.00;;;;;;4994892;28;20447;-66
2022/08/10 08:12:05;;;;;;;4.40;3.90;;;22.60;88.20;;;;;;5012773;28;20450;-65
2022/08/10 08:14:31;;;;;;;5.23;3.33;;;23.00;89.70;;;;;;5013128;28;20407;-65
2022/08/10 08:16:58;;;;;;;19.00;3.77;;;23.00;88.20;;;;;;5013833;28;20743;-65
2022/08/10 08:19:26;;;;;;;3.97;3.60;;;23.20;88.90;;;;;;5013140;28;20395;-65
2022/08/10 08:21:53;;;;;;;7.40;3.30;;;22.90;83.90;;;;;;5013039;28;20855;-66
2022/08/10 08:24:22;;;;;;;6.37;3.20;;;23.10;85.20;;;;;;5012980;28;20486;-66
2022/08/10 08:26:48;;;;;;;11.83;3.57;;;22.80;83.50;;;;;;5012833;28;20403;-66
2022/08/10 08:29:15;;;;;;;6.50;3.27;;;23.20;84.40;;;;;;5013221;28;20407;-66
2022/08/10 08:31:43;;;;;;;4.30;3.47;;;23.70;82.90;;;;;;5012850;28;20455;-66
2022/08/10 08:34:11;;;;;;;7.00;3.60;;;23.70;81.80;;;;;;5012777;28;20411;-66
2022/08/10 08:36:39;;;;;;;8.10;3.80;;;23.40;79.00;;;;;;5012683;28;20412;-66
2022/08/10 08:39:05;;;;;;;7.07;3.10;;;23.40;78.10;;;;;;5012151;28;20396;-66
2022/08/10 08:41:59;;;;;;;4.13;3.50;;;23.30;77.50;;;;;;5012314;28;20411;-66
2022/08/10 08:44:53;;;;;;;7.37;3.93;;;23.70;77.30;;;;;;5012584;28;20782;-66
2022/08/10 08:47:25;;;;;;;4.10;3.20;;;23.90;75.30;;;;;;4984021;28;20465;-67
2022/08/10 08:50:00;;;;;;;5.87;3.67;;;24.00;73.00;;;;;;5012097;28;20415;-66
2022/08/10 08:53:03;;;;;;;6.47;3.13;;;24.40;73.20;;;;;;5012461;28;20462;-66
2022/08/10 08:55:56;;;;;;;4.33;2.87;;;24.30;69.10;;;;;;5012417;28;20399;-66
2022/08/10 08:58:48;;;;;;;3.40;3.00;;;24.50;66.40;;;;;;5011974;28;20495;-66
2022/08/10 09:01:48;;;;;;;8.70;4.10;;;24.30;62.70;;;;;;5012151;28;20407;-66
2022/08/10 09:04:38;;;;;;;6.43;3.07;;;24.20;62.20;;;;;;5012112;28;20447;-66
2022/08/10 09:07:32;;;;;;;7.20;3.10;;;24.10;60.50;;;;;;5011998;28;20404;-66
2022/08/10 09:10:27;;;;;;;4.63;3.37;;;24.30;59.20;;;;;;5012045;28;20529;-66
2022/08/10 09:13:03;;;;;;;9.90;3.67;;;24.20;58.10;;;;;;5012218;28;20446;-65
2022/08/10 09:16:07;;;;;;;5.87;3.57;;;23.70;56.00;;;;;;5012269;28;20456;-65
2022/08/10 09:19:03;;;;;;;4.33;3.23;;;24.10;56.80;;;;;;5011740;28;21121;-65
2022/08/10 09:21:53;;;;;;;8.30;3.83;;;24.40;56.50;;;;;;5011135;28;20988;-65
2022/08/10 09:24:24;;;;;;;3.13;2.83;;;24.70;55.60;;;;;;5011859;28;20407;-65
2022/08/10 09:26:52;;;;;;;6.50;3.37;;;24.80;54.00;;;;;;5011902;28;20919;-65
2022/08/10 09:29:23;;;;;;;3.47;3.17;;;24.80;51.50;;;;;;5011770;28;20742;-65
2022/08/10 09:32:07;;;;;;;3.47;3.00;;;24.70;64.40;;;;;;5013504;28;20454;-66
2022/08/10 09:34:59;;;;;;;11.50;3.77;;;24.60;47.60;;;;;;5013327;28;20782;-65
2022/08/10 09:37:58;;;;;;;5.53;3.50;;;24.80;47.70;;;;;;5012876;28;20764;-65
2022/08/10 09:40:30;;;;;;;3.03;2.83;;;24.70;43.90;;;;;;5013356;28;20403;-65
2022/08/10 09:43:17;;;;;;;6.60;3.40;;;24.40;42.60;;;;;;5012631;28;20420;-65
2022/08/10 09:45:54;;;;;;;4.83;2.70;;;24.60;43.40;;;;;;5012153;28;20403;-65
2022/08/10 09:48:46;;;;;;;3.40;2.97;;;24.70;42.40;;;;;;5011311;28;20489;-66
2022/08/10 09:51:29;;;;;;;5.20;3.40;;;24.90;41.30;;;;;;5011353;28;20454;-65
2022/08/10 09:54:28;;;;;;;4.97;3.30;;;24.70;39.60;;;;;;5011452;28;20403;-65
2022/08/10 09:57:16;;;;;;;8.77;3.00;;;24.80;38.90;;;;;;5011594;28;20409;-65
2022/08/10 09:59:51;;;;;;;4.60;2.47;;;24.90;35.60;;;;;;5011175;28;20430;-65
2022/08/10 10:02:26;;;;;;;10.20;3.07;;;25.10;34.40;;;;;;5011272;28;20422;-65
2022/08/10 10:05:23;;;;;;;3.50;2.83;;;25.40;34.90;;;;;;5011401;28;20390;-65
2022/08/10 10:08:06;;;;;;;6.73;2.70;;;25.30;32.70;;;;;;5011393;28;20486;-65
2022/08/10 10:10:38;;;;;;;7.23;2.60;;;25.10;30.00;;;;;;5011204;28;20446;-66
2022/08/10 10:13:17;;;;;;;4.90;3.20;;;24.90;28.90;;;;;;5010641;28;20442;-65
2022/08/10 10:16:21;;;;;;;6.13;3.00;;;24.90;40.80;;;;;;5011190;28;20403;-66
2022/08/10 10:19:28;;;;;;;3.23;2.90;;;24.90;28.30;;;;;;5001155;28;20449;-65
2022/08/10 10:22:04;;;;;;;5.57;3.00;;;25.20;29.10;;;;;;5010608;28;20855;-65
2022/08/10 10:24:51;;;;;;;8.60;3.17;;;25.30;27.30;;;;;;5011026;28;20911;-65
2022/08/10 10:27:32;;;;;;;6.10;2.87;;;25.30;25.60;;;;;;5011079;28;20959;-65
2022/08/10 10:30:03;;;;;;;5.27;2.90;;;25.10;24.90;;;;;;5010599;28;20907;-65
2022/08/10 10:32:51;;;;;;;2.90;2.70;;;25.00;23.10;;;;;;5014044;28;20447;-65
2022/08/10 10:35:46;;;;;;;3.60;2.90;;;25.20;22.30;;;;;;5014825;28;20445;-65
2022/08/10 10:38:13;;;;;;;3.50;3.20;;;25.50;23.40;;;;;;4991007;28;20789;-65
2022/08/10 10:41:01;;;;;;;4.63;2.70;;;25.50;22.80;;;;;;5014674;28;20406;-65
2022/08/10 10:44:05;;;;;;;6.17;2.70;;;25.80;24.10;;;;;;5014718;28;20538;-65
2022/08/10 10:46:37;;;;;;;7.13;3.00;;;26.00;22.40;;;;;;4981059;28;20464;-65
2022/08/10 10:49:29;;;;;;;2.83;2.53;;;25.80;20.90;;;;;;5014261;28;21083;-65
2022/08/10 10:51:58;;;;;;;7.60;2.40;;;25.70;19.60;;;;;;5014203;28;20474;-66
2022/08/10 10:54:38;;;;;;;3.20;3.00;;;25.40;17.20;;;;;;5014576;28;20411;-65
2022/08/10 10:57:47;;;;;;;4.87;2.77;;;25.60;17.10;;;;;;5014270;28;20411;-66
2022/08/10 11:00:15;;;;;;;4.10;2.50;;;25.80;17.00;;;;;;5014388;28;20418;-65
2022/08/10 11:02:57;;;;;;;3.47;2.30;;;26.00;16.50;;;;;;5014241;28;20434;-66
2022/08/10 11:05:26;;;;;;;5.00;3.33;;;26.00;16.00;;;;;;5014165;28;20484;-65
2022/08/10 11:08:21;;;;;;;5.77;2.70;;;26.00;13.90;;;;;;5014121;28;20452;-67
2022/08/10 11:11:15;;;;;;;5.33;2.90;;;26.00;13.10;;;;;;5008613;28;20459;-66
2022/08/10 11:14:01;;;;;;;4.90;2.80;;;25.70;11.90;;;;;;5013889;28;20524;-66
2022/08/10 11:16:52;;;;;;;2.60;2.40;;;25.80;11.00;;;;;;5014214;28;20426;-66
2022/08/10 11:19:25;;;;;;;4.37;2.10;;;25.50;9.00;;;;;;5014037;28;20498;-66
2022/08/10 11:22:29;;;;;;;2.53;2.33;;;25.60;8.70;;;;;;5013923;28;20423;-66
2022/08/10 11:25:02;;;;;;;3.13;2.20;;;25.90;8.80;;;;;;5013461;28;20426;-66
2022/08/10 11:27:35;;;;;;;6.37;2.50;;;26.10;8.50;;;;;;5013851;28;20406;-65
2022/08/10 11:30:14;;;;;;;3.13;2.33;;;26.10;7.80;;;;;;5013626;28;20403;-65
2022/08/10 11:33:00;;;;;;;3.07;2.77;;;25.90;5.00;;;;;;5013634;28;20922;-66
2022/08/10 11:35:46;;;;;;;6.90;2.87;;;25.80;4.70;;;;;;5013788;28;20426;-66
2022/08/10 11:38:20;;;;;;;3.20;2.50;;;25.90;3.20;;;;;;5013384;28;20410;-66
2022/08/10 11:41:04;;;;;;;5.73;2.80;;;25.80;2.10;;;;;;5013717;28;20482;-65
2022/08/10 11:43:38;;;;;;;4.70;2.50;;;25.70;1.50;;;;;;5012808;28;20453;-66
2022/08/10 11:46:28;;;;;;;4.80;2.17;;;25.70;1.00;;;;;;5013599;28;20402;-66
2022/08/10 11:49:03;;;;;;;3.77;2.97;;;25.90;1.00;;;;;;5013077;28;20406;-67
2022/08/10 11:51:46;;;;;;;3.03;2.70;;;25.80;1.00;;;;;;5013336;28;20469;-67
2022/08/10 11:54:55;;;;;;;3.10;2.80;;;26.10;1.00;;;;;;5013471;28;20849;-66
2022/08/10 11:57:28;;;;;;;3.00;2.80;;;26.10;1.00;;;;;;5004062;28;20427;-66
2022/08/10 11:59:56;;;;;;;3.00;2.70;;;26.00;1.00;;;;;;5013167;28;20416;-67
2022/08/10 12:02:36;;;;;;;3.70;2.77;;;25.80;1.00;;;;;;5013169;28;20426;-67
2022/08/10 12:05:09;;;;;;;3.30;2.93;;;26.20;1.00;;;;;;5013426;28;20769;-66
2022/08/10 12:07:44;;;;;;;2.90;2.70;;;25.80;1.00;;;;;;5013110;28;20822;-66
2022/08/10 12:10:13;;;;;;;5.40;2.63;;;25.80;1.00;;;;;;5012995;28;20450;-67
2022/08/10 12:12:54;;;;;;;7.87;3.37;;;26.00;1.00;;;;;;5013288;28;20443;-66
2022/08/10 12:15:32;;;;;;;3.47;3.00;;;25.90;1.00;;;;;;5013035;28;20402;-67
2022/08/10 12:18:03;;;;;;;3.57;2.80;;;26.00;1.00;;;;;;5012648;28;20422;-65
2022/08/10 12:20:36;;;;;;;3.27;2.23;;;25.90;1.00;;;;;;5012975;28;20797;-65
2022/08/10 12:23:32;;;;;;;6.07;2.40;;;26.20;1.00;;;;;;5012855;28;20427;-66
2022/08/10 12:26:22;;;;;;;5.53;2.80;;;26.30;1.00;;;;;;5012985;28;20435;-66
2022/08/10 12:29:25;;;;;;;2.97;2.40;;;26.10;1.00;;;;;;5012735;28;20438;-66
2022/08/10 12:32:10;;;;;;;6.60;2.30;;;26.10;1.00;;;;;;4995192;28;20462;-66
2022/08/10 12:34:51;;;;;;;6.67;2.07;;;26.10;1.00;;;;;;5012902;28;20410;-66
2022/08/10 12:37:47;;;;;;;4.07;2.37;;;26.00;1.00;;;;;;5012718;28;20470;-66
2022/08/10 12:40:20;;;;;;;4.90;2.47;;;26.30;1.00;;;;;;5012616;28;20403;-66
2022/08/10 12:43:08;;;;;;;4.73;2.30;;;26.60;1.00;;;;;;5012601;28;20736;-66
2022/08/10 12:45:53;;;;;;;4.87;2.87;;;26.50;1.00;;;;;;5012512;28;20438;-66
2022/08/10 12:48:34;;;;;;;3.77;2.20;;;26.30;1.00;;;;;;5012187;28;20857;-65
2022/08/10 12:51:22;;;;;;;3.10;2.20;;;26.30;1.00;;;;;;5012450;28;20450;-66
2022/08/10 12:54:06;;;;;;;3.80;2.30;;;26.40;1.00;;;;;;5012309;28;20475;-66
2022/08/10 12:56:37;;;;;;;7.73;2.43;;;26.20;1.00;;;;;;5012814;28;20403;-65
2022/08/10 12:59:09;;;;;;;3.43;2.00;;;26.20;1.00;;;;;;5012374;28;20406;-66
2022/08/10 13:01:37;;;;;;;2.30;2.10;;;26.20;1.00;;;;;;5012371;28;20418;-66
2022/08/10 13:04:07;;;;;;;4.10;2.03;;;26.30;1.00;;;;;;5013833;28;20509;-66
2022/08/10 13:06:40;;;;;;;4.40;2.17;;;26.30;1.00;;;;;;5012869;28;20769;-66
2022/08/10 13:09:09;;;;;;;5.23;1.90;;;26.20;1.00;;;;;;5012001;28;20408;-66
2022/08/10 13:11:46;;;;;;;5.67;2.63;;;26.30;1.00;;;;;;5011931;28;20516;-66
2022/08/10 13:14:30;;;;;;;3.60;2.30;;;26.20;1.00;;;;;;5011567;28;20900;-66
2022/08/10 13:16:58;;;;;;;4.03;2.23;;;26.50;1.00;;;;;;5011809;28;20427;-66
2022/08/10 13:19:29;;;;;;;6.90;2.00;;;26.50;1.00;;;;;;5011621;28;20410;-66
2022/08/10 13:21:57;;;;;;;3.60;2.57;;;26.40;1.00;;;;;;5011804;28;20513;-66
2022/08/10 13:24:26;;;;;;;4.13;2.10;;;26.50;1.00;;;;;;5011571;28;20503;-66